createdAt,value
2023-02-23T00:01:16.278Z,96884.22
2023-02-23T00:03:44.698Z,96882.53
2023-02-23T00:06:13.688Z,96881.66
2023-02-23T00:08:41.808Z,96877.16
2023-02-23T00:11:11.676Z,96882.53
2023-02-23T00:13:40.152Z,96874.56
2023-02-23T00:16:09.321Z,96878.22
2023-02-23T00:18:45.639Z,96878.22
2023-02-23T00:21:16.521Z,96882.63
2023-02-23T00:23:45.558Z,96881.03
2023-02-23T00:26:14.413Z,96879.19
2023-02-23T00:28:44.763Z,96878.34
2023-02-23T00:31:13.458Z,96887.34
2023-02-23T00:33:43.183Z,96884.66
2023-02-23T00:36:12.512Z,96880.16
2023-02-23T00:38:40.777Z,96881.13
2023-02-23T00:41:11.024Z,96878.44
2023-02-23T00:43:47.606Z,96886.59
2023-02-23T00:46:17.630Z,96884.78
2023-02-23T00:48:47.479Z,96887.47
2023-02-23T00:51:15.827Z,96883.06
2023-02-23T00:53:44.265Z,96877.69
2023-02-23T00:56:13.765Z,96878.66
2023-02-23T00:58:42.421Z,96884.03
2023-02-23T01:01:11.956Z,96882.31
2023-02-23T01:03:41.608Z,96884.16
2023-02-23T01:06:14.918Z,96878.78
2023-02-23T01:08:44.296Z,96880.59
2023-02-23T01:11:13.125Z,96880.59
2023-02-23T01:13:44.687Z,96879.88
2023-02-23T01:16:16.098Z,96881.56
2023-02-23T01:18:44.795Z,96884.25
2023-02-23T01:21:17.983Z,96872.69
2023-02-23T01:23:46.386Z,96879.88
2023-02-23T01:26:19.198Z,96878.03
2023-02-23T01:28:50.415Z,96879.88
2023-02-23T01:31:19.714Z,96878.03
2023-02-23T01:33:47.984Z,96871.81
2023-02-23T01:36:18.737Z,96871.81
2023-02-23T01:38:46.929Z,96870.94
2023-02-23T01:41:15.470Z,96860.22
2023-02-23T01:44:00.742Z,96863.00
2023-02-23T01:46:30.245Z,96864.72
2023-02-23T01:48:58.628Z,96865.69
2023-02-23T01:51:29.121Z,96859.34
2023-02-23T01:54:01.229Z,96863.00
2023-02-23T01:56:31.018Z,96848.72
2023-02-23T01:58:59.548Z,96861.28
2023-02-23T02:01:29.792Z,96850.53
2023-02-23T02:03:59.345Z,96856.78
2023-02-23T02:06:30.054Z,96851.53
2023-02-23T02:09:00.838Z,96853.22
2023-02-23T02:11:36.358Z,96845.16
2023-02-23T02:14:09.184Z,96849.69
2023-02-23T02:16:48.021Z,96847.97
2023-02-23T02:19:54.577Z,96849.78
2023-02-23T02:22:48.342Z,96846.28
2023-02-23T02:25:43.321Z,96844.53
2023-02-23T02:28:32.947Z,96843.69
2023-02-23T02:31:28.229Z,96844.53
2023-02-23T02:34:03.351Z,96847.34
2023-02-23T02:37:13.165Z,96840.16
2023-02-23T02:39:46.813Z,96844.66
2023-02-23T02:42:20.609Z,96850.97
2023-02-23T02:44:52.332Z,96849.28
2023-02-23T02:47:24.120Z,96852.72
2023-02-23T02:49:53.598Z,96857.31
2023-02-23T02:52:25.829Z,96847.53
2023-02-23T02:54:54.933Z,96847.53
2023-02-23T02:57:25.743Z,96847.53
2023-02-23T03:00:11.411Z,96857.31
2023-02-23T03:02:58.980Z,96859.16
2023-02-23T03:05:46.417Z,96855.59
2023-02-23T03:08:37.633Z,96857.44
2023-02-23T03:11:24.493Z,96861.09
2023-02-23T03:14:20.556Z,96861.94
2023-02-23T03:17:10.060Z,96861.09
2023-02-23T03:19:57.495Z,96854.09
2023-02-23T03:22:46.671Z,96854.84
2023-02-23T03:25:35.436Z,96857.53
2023-02-23T03:28:28.601Z,96863.88
2023-02-23T03:31:21.523Z,96860.34
2023-02-23T03:34:13.392Z,96861.19
2023-02-23T03:37:02.476Z,96867.50
2023-02-23T03:39:51.880Z,96870.19
2023-02-23T03:42:39.734Z,96865.81
2023-02-23T03:45:27.270Z,96870.31
2023-02-23T03:48:13.156Z,96873.88
2023-02-23T03:51:01.057Z,96875.69
2023-02-23T03:53:48.635Z,96865.81
2023-02-23T03:56:34.522Z,96866.78
2023-02-23T03:59:21.996Z,96873.13
2023-02-23T04:02:07.717Z,96864.09
2023-02-23T04:04:53.608Z,96868.63
2023-02-23T04:07:39.018Z,96875.81
2023-02-23T04:10:26.495Z,96870.44
2023-02-23T04:13:14.944Z,96866.88
2023-02-23T04:15:46.408Z,96872.25
2023-02-23T04:18:15.790Z,96873.13
2023-02-23T04:20:44.030Z,96877.63
2023-02-23T04:23:12.603Z,96875.91
2023-02-23T04:25:40.825Z,96875.06
2023-02-23T04:28:09.660Z,96868.69
2023-02-23T04:30:38.356Z,96879.56
2023-02-23T04:33:08.035Z,96875.06
2023-02-23T04:35:36.398Z,96875.91
2023-02-23T04:38:04.956Z,96871.50
2023-02-23T04:40:33.343Z,96874.19
2023-02-23T04:43:01.687Z,96875.16
2023-02-23T04:45:29.865Z,96873.25
2023-02-23T04:47:57.914Z,96876.00
2023-02-23T04:50:27.423Z,96881.38
2023-02-23T04:52:55.443Z,96878.69
2023-02-23T04:55:24.656Z,96887.59
2023-02-23T04:57:53.037Z,96885.91
2023-02-23T05:00:21.419Z,96884.06
2023-02-23T05:02:50.676Z,96883.22
2023-02-23T05:05:19.048Z,96880.53
2023-02-23T05:07:48.534Z,96874.31
2023-02-23T05:10:16.837Z,96880.53
2023-02-23T05:12:44.919Z,96877.00
2023-02-23T05:15:13.145Z,96880.41
2023-02-23T05:17:42.390Z,96880.41
2023-02-23T05:20:11.830Z,96884.91
2023-02-23T05:22:39.991Z,96886.72
2023-02-23T05:25:12.023Z,96890.28
2023-02-23T05:27:40.299Z,96895.66
2023-02-23T05:30:10.055Z,96888.34
2023-02-23T05:32:38.195Z,96890.16
2023-02-23T05:35:07.131Z,96894.59
2023-02-23T05:37:35.220Z,96897.28
2023-02-23T05:40:03.403Z,96893.59
2023-02-23T05:42:32.856Z,96895.34
2023-02-23T05:45:01.020Z,96902.53
2023-02-23T05:47:29.116Z,96897.03
2023-02-23T05:49:57.145Z,96906.06
2023-02-23T05:52:25.724Z,96902.31
2023-02-23T05:54:53.825Z,96909.38
2023-02-23T05:57:22.116Z,96911.19
2023-02-23T05:59:51.562Z,96912.94
2023-02-23T06:02:19.717Z,96917.31
2023-02-23T06:04:47.797Z,96919.19
2023-02-23T06:07:15.956Z,96926.25
2023-02-23T06:09:44.677Z,96936.09
2023-02-23T06:12:12.817Z,96927.22
2023-02-23T06:14:40.892Z,96936.09
2023-02-23T06:17:10.389Z,96941.41
2023-02-23T06:19:38.596Z,96931.50
2023-02-23T06:22:06.673Z,96939.47
2023-02-23T06:24:35.132Z,96946.53
2023-02-23T06:27:03.251Z,96942.97
2023-02-23T06:29:31.341Z,96946.53
2023-02-23T06:32:01.129Z,96940.28
2023-02-23T06:34:30.947Z,96944.59
2023-02-23T06:37:00.650Z,96949.97
2023-02-23T06:39:28.703Z,96953.50
2023-02-23T06:41:56.829Z,96947.16
2023-02-23T06:44:25.168Z,96957.81
2023-02-23T06:46:53.563Z,96955.97
2023-02-23T06:49:21.732Z,96952.34
2023-02-23T06:51:51.188Z,96953.19
2023-02-23T06:54:19.275Z,96954.03
2023-02-23T06:56:47.423Z,96964.78
2023-02-23T06:59:15.629Z,96961.25
2023-02-23T07:01:44.854Z,96955.88
2023-02-23T07:04:14.913Z,96977.34
2023-02-23T07:06:44.768Z,96972.06
2023-02-23T07:09:15.533Z,96968.44
2023-02-23T07:11:44.881Z,96972.94
2023-02-23T07:14:21.541Z,96974.69
2023-02-23T07:16:54.405Z,96975.50
2023-02-23T07:19:23.409Z,96973.81
2023-02-23T07:21:51.566Z,96972.81
2023-02-23T07:24:21.998Z,96972.00
2023-02-23T07:26:50.172Z,96972.75
2023-02-23T07:29:18.208Z,96963.72
2023-02-23T07:31:46.424Z,96969.94
2023-02-23T07:34:14.582Z,96969.06
2023-02-23T07:36:42.631Z,96956.53
2023-02-23T07:39:10.664Z,96963.72
2023-02-23T07:41:40.156Z,96966.38
2023-02-23T07:44:17.436Z,96959.19
2023-02-23T07:46:46.516Z,96967.38
2023-02-23T07:49:15.040Z,96970.81
2023-02-23T07:51:43.184Z,96967.25
2023-02-23T07:54:11.263Z,96969.06
2023-02-23T07:56:40.791Z,96975.31
2023-02-23T07:59:08.918Z,96967.25
2023-02-23T08:01:37.115Z,96980.56
2023-02-23T08:04:05.668Z,96967.16
2023-02-23T08:06:33.849Z,96977.88
2023-02-23T08:09:02.489Z,96970.69
2023-02-23T08:11:30.529Z,96975.19
2023-02-23T08:14:01.127Z,96979.69
2023-02-23T08:16:29.409Z,96965.31
2023-02-23T08:18:58.331Z,96964.47
2023-02-23T08:21:26.574Z,96975.19
2023-02-23T08:23:55.541Z,96981.44
2023-02-23T08:26:24.319Z,96969.81
2023-02-23T08:28:52.624Z,96973.50
2023-02-23T08:31:24.348Z,96977.00
2023-02-23T08:33:52.995Z,96974.31
2023-02-23T08:36:21.368Z,96978.88
2023-02-23T08:38:49.638Z,96974.25
2023-02-23T08:41:18.003Z,96978.75
2023-02-23T08:43:46.343Z,96979.63
2023-02-23T08:46:14.534Z,96975.09
2023-02-23T08:48:44.152Z,96978.75
2023-02-23T08:51:12.348Z,96991.31
2023-02-23T08:53:40.430Z,96984.13
2023-02-23T08:56:09.295Z,96983.25
2023-02-23T08:58:37.618Z,96984.13
2023-02-23T09:01:06.135Z,96983.25
2023-02-23T09:03:38.233Z,96981.53
2023-02-23T09:06:10.078Z,96989.59
2023-02-23T09:08:39.250Z,96987.75
2023-02-23T09:11:07.314Z,96985.94
2023-02-23T09:13:36.176Z,96983.13
2023-02-23T09:16:05.009Z,96984.13
2023-02-23T09:18:33.195Z,96983.13
2023-02-23T09:21:06.959Z,96983.06
2023-02-23T09:23:36.762Z,96989.38
2023-02-23T09:26:05.140Z,96991.19
2023-02-23T09:28:33.992Z,96987.56
2023-02-23T09:31:07.046Z,96996.47
2023-02-23T09:33:35.261Z,96987.56
2023-02-23T09:36:06.168Z,96992.91
2023-02-23T09:38:34.278Z,96990.22
2023-02-23T09:41:03.712Z,96991.09
2023-02-23T09:43:33.533Z,96995.59
2023-02-23T09:46:06.042Z,96991.19
2023-02-23T09:48:34.272Z,96989.38
2023-02-23T09:51:02.360Z,96993.78
2023-02-23T09:53:36.457Z,96996.47
2023-02-23T09:56:10.665Z,96991.09
2023-02-23T09:58:38.786Z,96999.03
2023-02-23T10:01:24.732Z,97000.84
2023-02-23T10:03:55.556Z,96997.97
2023-02-23T10:06:23.736Z,96988.06
2023-02-23T10:08:58.144Z,96989.81
2023-02-23T10:11:29.471Z,96996.03
2023-02-23T10:14:03.188Z,96989.69
2023-02-23T10:16:36.590Z,96995.06
2023-02-23T10:19:07.139Z,96990.56
2023-02-23T10:21:37.073Z,96982.63
2023-02-23T10:24:06.538Z,96992.50
2023-02-23T10:26:40.224Z,96993.25
2023-02-23T10:29:11.497Z,96992.38
2023-02-23T10:31:42.647Z,96993.25
2023-02-23T10:34:14.157Z,96988.00
2023-02-23T10:36:44.319Z,96989.69
2023-02-23T10:39:12.952Z,96979.81
2023-02-23T10:41:42.493Z,96967.34
2023-02-23T10:44:17.347Z,96968.97
2023-02-23T10:46:45.693Z,96966.28
2023-02-23T10:49:16.646Z,96967.16
2023-02-23T10:51:44.741Z,96968.00
2023-02-23T10:54:38.885Z,96958.22
2023-02-23T10:57:08.865Z,96953.84
2023-02-23T10:59:36.924Z,96957.47
2023-02-23T11:02:23.332Z,96962.97
2023-02-23T11:04:53.139Z,96956.09
2023-02-23T11:07:24.235Z,96949.09
2023-02-23T11:09:52.889Z,96943.72
2023-02-23T11:12:24.215Z,96942.03
2023-02-23T11:14:53.052Z,96939.44
2023-02-23T11:17:27.741Z,96938.59
2023-02-23T11:19:59.895Z,96927.09
2023-02-23T11:22:28.072Z,96928.94
2023-02-23T11:24:56.245Z,96922.69
2023-02-23T11:27:27.260Z,96921.00
2023-02-23T11:29:56.877Z,96916.56
2023-02-23T11:32:28.939Z,96915.72
2023-02-23T11:35:13.703Z,96910.34
2023-02-23T11:37:41.876Z,96899.72
2023-02-23T11:40:20.229Z,96898.84
2023-02-23T11:42:54.697Z,96904.34
2023-02-23T11:45:23.623Z,96907.03
2023-02-23T11:47:52.652Z,96907.03
2023-02-23T11:50:25.527Z,96901.66
2023-02-23T11:52:56.772Z,96898.09
2023-02-23T11:55:25.565Z,96896.28
2023-02-23T11:57:56.898Z,96895.53
2023-02-23T12:00:27.428Z,96897.34
2023-02-23T12:02:58.619Z,96894.66
2023-02-23T12:05:27.648Z,96891.16
2023-02-23T12:07:59.771Z,96891.22
2023-02-23T12:10:29.187Z,96893.91
2023-02-23T12:13:04.596Z,96894.78
2023-02-23T12:15:37.501Z,96889.41
2023-02-23T12:18:08.434Z,96899.28
2023-02-23T12:20:39.178Z,96889.41
2023-02-23T12:23:09.175Z,96891.78
2023-02-23T12:25:40.632Z,96886.41
2023-02-23T12:28:19.247Z,96882.75
2023-02-23T12:30:49.748Z,96880.94
2023-02-23T12:33:20.207Z,96876.31
2023-02-23T12:35:51.760Z,96876.19
2023-02-23T12:38:27.921Z,96872.56
2023-02-23T12:40:59.959Z,96871.56
2023-02-23T12:43:33.609Z,96876.00
2023-02-23T12:46:08.513Z,96870.63
2023-02-23T12:48:39.737Z,96875.00
2023-02-23T12:51:12.644Z,96869.56
2023-02-23T12:53:42.113Z,96873.06
2023-02-23T12:56:20.862Z,96867.63
2023-02-23T12:58:52.110Z,96864.94
2023-02-23T13:01:22.710Z,96856.75
2023-02-23T13:04:01.143Z,96862.13
2023-02-23T13:06:36.897Z,96859.44
2023-02-23T13:09:11.395Z,96864.19
2023-02-23T13:11:53.883Z,96860.00
2023-02-23T13:14:26.666Z,96859.13
2023-02-23T13:16:56.586Z,96860.63
2023-02-23T13:19:26.472Z,96861.50
2023-02-23T13:21:56.292Z,96858.69
2023-02-23T13:24:26.106Z,96863.06
2023-02-23T13:26:56.830Z,96866.63
2023-02-23T13:29:31.879Z,96861.25
2023-02-23T13:34:50.034Z,96858.56
2023-02-23T13:37:20.664Z,96859.44
2023-02-23T13:39:54.203Z,96863.06
2023-02-23T13:42:28.241Z,96866.00
2023-02-23T13:45:02.236Z,96860.75
2023-02-23T13:47:35.982Z,96862.56
2023-02-23T13:50:06.405Z,96863.53
2023-02-23T13:52:39.754Z,96864.50
2023-02-23T13:55:49.926Z,96864.63
2023-02-23T13:58:19.488Z,96868.13
2023-02-23T14:00:56.465Z,96861.06
2023-02-23T14:03:25.662Z,96868.13
2023-02-23T14:05:56.662Z,96868.06
2023-02-23T14:08:32.444Z,96867.81
2023-02-23T14:11:00.601Z,96865.13
2023-02-23T14:13:31.025Z,96865.00
2023-02-23T14:16:18.453Z,96869.44
2023-02-23T14:19:08.237Z,96861.25
2023-02-23T14:21:38.251Z,96866.63
2023-02-23T14:24:20.075Z,96863.81
2023-02-23T14:27:40.440Z,96864.81
2023-02-23T14:30:25.411Z,96867.38
2023-02-23T14:32:54.968Z,96859.31
2023-02-23T14:35:45.146Z,96861.06
2023-02-23T14:38:18.398Z,96862.00
2023-02-23T14:40:49.011Z,96859.19
2023-02-23T14:43:48.225Z,96853.94
2023-02-23T14:46:20.288Z,96858.38
2023-02-23T14:48:59.801Z,96848.47
2023-02-23T14:51:42.529Z,96855.56
2023-02-23T14:54:16.361Z,96853.75
2023-02-23T14:56:48.020Z,96859.94
2023-02-23T14:59:20.995Z,96859.00
2023-02-23T15:01:49.265Z,96854.50
2023-02-23T15:04:20.887Z,96857.19
2023-02-23T15:06:49.103Z,96855.31
2023-02-23T15:09:19.327Z,96858.00
2023-02-23T15:11:49.992Z,96854.38
2023-02-23T15:14:27.302Z,96851.69
2023-02-23T15:16:57.027Z,96850.69
2023-02-23T15:19:26.486Z,96847.19
2023-02-23T15:21:55.258Z,96850.69
2023-02-23T15:24:25.855Z,96847.06
2023-02-23T15:26:53.998Z,96850.63
2023-02-23T15:29:22.890Z,96848.75
2023-02-23T15:31:52.852Z,96845.25
2023-02-23T15:34:21.979Z,96839.00
2023-02-23T15:36:53.504Z,96844.38
2023-02-23T15:39:34.386Z,96838.03
2023-02-23T15:42:02.972Z,96847.06
2023-02-23T15:44:43.607Z,96838.16
2023-02-23T15:47:17.919Z,96835.56
2023-02-23T15:49:46.124Z,96846.19
2023-02-23T15:52:18.619Z,96840.81
2023-02-23T15:54:48.982Z,96837.19
2023-02-23T15:57:20.543Z,96836.19
2023-02-23T15:59:49.129Z,96838.03
2023-02-23T16:02:19.411Z,96839.97
2023-02-23T16:04:49.943Z,96841.56
2023-02-23T16:07:20.616Z,96845.00
2023-02-23T16:09:53.122Z,96840.50
2023-02-23T16:12:23.007Z,96842.19
2023-02-23T16:14:54.016Z,96839.50
2023-02-23T16:17:27.093Z,96847.56
2023-02-23T16:19:56.603Z,96841.25
2023-02-23T16:22:27.691Z,96835.00
2023-02-23T16:25:00.879Z,96837.69
2023-02-23T16:27:29.739Z,96829.63
2023-02-23T16:30:00.526Z,96840.38
2023-02-23T16:32:34.983Z,96841.25
2023-02-23T16:35:03.966Z,96843.94
2023-02-23T16:37:33.456Z,96850.16
2023-02-23T16:40:01.923Z,96839.44
2023-02-23T16:42:31.650Z,96848.31
2023-02-23T16:45:00.255Z,96846.63
2023-02-23T16:47:36.578Z,96839.44
2023-02-23T16:50:20.147Z,96848.31
2023-02-23T16:52:53.626Z,96850.16
2023-02-23T16:55:26.163Z,96846.50
2023-02-23T16:57:55.771Z,96851.88
2023-02-23T17:00:26.559Z,96853.59
2023-02-23T17:02:55.770Z,96851.88
2023-02-23T17:05:24.716Z,96853.59
2023-02-23T17:07:54.373Z,96850.78
2023-02-23T17:10:26.976Z,96850.03
2023-02-23T17:12:55.708Z,96858.84
2023-02-23T17:15:24.956Z,96858.84
2023-02-23T17:17:56.213Z,96863.22
2023-02-23T17:20:26.143Z,96865.09
2023-02-23T17:22:56.016Z,96859.59
2023-02-23T17:25:26.697Z,96860.47
2023-02-23T17:27:54.846Z,96869.34
2023-02-23T17:30:23.698Z,96865.75
2023-02-23T17:32:52.310Z,96871.13
2023-02-23T17:35:20.646Z,96865.75
2023-02-23T17:37:48.786Z,96871.97
2023-02-23T17:40:26.144Z,96870.13
2023-02-23T17:42:54.335Z,96871.88
2023-02-23T17:45:22.676Z,96866.50
2023-02-23T17:47:50.897Z,96872.72
2023-02-23T17:50:20.038Z,96870.88
2023-02-23T17:52:48.251Z,96875.28
2023-02-23T17:55:16.353Z,96877.13
2023-02-23T17:57:46.105Z,96879.69
2023-02-23T18:00:15.471Z,96879.59
2023-02-23T18:02:44.429Z,96874.22
2023-02-23T18:05:13.488Z,96879.47
2023-02-23T18:07:41.605Z,96876.78
2023-02-23T18:10:11.103Z,96878.50
2023-02-23T18:12:39.363Z,96881.16
2023-02-23T18:15:09.554Z,96873.97
2023-02-23T18:17:37.691Z,96875.72
2023-02-23T18:20:07.136Z,96873.84
2023-02-23T18:22:35.297Z,96869.34
2023-02-23T18:25:03.415Z,96872.91
2023-02-23T18:27:31.524Z,96879.16
2023-02-23T18:29:59.605Z,96874.59
2023-02-23T18:32:29.349Z,96873.66
2023-02-23T18:34:57.572Z,96872.56
2023-02-23T18:37:28.853Z,96871.59
2023-02-23T18:39:59.353Z,96878.69
2023-02-23T18:42:27.670Z,96873.19
2023-02-23T18:44:55.765Z,96872.97
2023-02-23T18:47:24.376Z,96869.19
2023-02-23T18:49:53.863Z,96868.13
2023-02-23T18:52:21.953Z,96873.38
2023-02-23T18:54:50.206Z,96868.84
2023-02-23T18:57:18.349Z,96867.78
2023-02-23T18:59:47.676Z,96865.94
2023-02-23T19:02:15.728Z,96873.03
2023-02-23T19:04:43.866Z,96865.72
2023-02-23T19:07:13.337Z,96865.59
2023-02-23T19:09:41.449Z,96862.69
2023-02-23T19:12:11.448Z,96859.63
2023-02-23T19:14:49.211Z,96856.91
2023-02-23T19:17:17.708Z,96856.66
2023-02-23T19:19:45.893Z,96860.94
2023-02-23T19:22:15.427Z,96859.13
2023-02-23T19:24:43.490Z,96863.41
2023-02-23T19:27:11.629Z,96858.78
2023-02-23T19:29:39.947Z,96856.41
2023-02-23T19:32:08.824Z,96853.56
2023-02-23T19:34:37.105Z,96865.19
2023-02-23T19:37:05.275Z,96863.25
2023-02-23T19:39:35.298Z,96856.53
2023-02-23T19:42:03.397Z,96858.63
2023-02-23T19:44:31.540Z,96857.66
2023-02-23T19:46:59.620Z,96856.06
2023-02-23T19:49:27.750Z,96860.59
2023-02-23T19:51:57.899Z,96853.50
2023-02-23T19:54:28.749Z,96859.50
2023-02-23T19:56:58.280Z,96852.03
2023-02-23T19:59:28.671Z,96855.47
2023-02-23T20:01:56.898Z,96854.38
2023-02-23T20:04:25.030Z,96851.44
2023-02-23T20:06:53.207Z,96846.78
2023-02-23T20:09:21.419Z,96856.94
2023-02-23T20:11:49.562Z,96848.13
2023-02-23T20:14:18.965Z,96848.38
2023-02-23T20:16:47.083Z,96843.84
2023-02-23T20:19:15.220Z,96843.84
2023-02-23T20:21:43.627Z,96842.00
2023-02-23T20:24:12.827Z,96845.69
2023-02-23T20:26:40.987Z,96849.34
2023-02-23T20:29:11.714Z,96843.75
2023-02-23T20:31:44.939Z,96840.06
2023-02-23T20:34:13.412Z,96838.97
2023-02-23T20:36:41.625Z,96837.16
2023-02-23T20:39:10.682Z,96836.03
2023-02-23T20:41:43.466Z,96833.25
2023-02-23T20:44:11.836Z,96843.00
2023-02-23T20:46:41.348Z,96841.06
2023-02-23T20:49:11.090Z,96834.25
2023-02-23T20:51:39.822Z,96837.41
2023-02-23T20:54:08.341Z,96825.03
2023-02-23T20:56:36.422Z,96836.69
2023-02-23T20:59:04.633Z,96831.28
2023-02-23T21:01:32.871Z,96827.88
2023-02-23T21:04:02.498Z,96831.56
2023-02-23T21:06:31.160Z,96827.38
2023-02-23T21:09:04.608Z,96826.88
2023-02-23T21:11:32.999Z,96824.44
2023-02-23T21:14:01.080Z,96830.91
2023-02-23T21:16:32.457Z,96827.47
2023-02-23T21:19:05.552Z,96823.06
2023-02-23T21:21:34.085Z,96824.19
2023-02-23T21:24:02.221Z,96819.75
2023-02-23T21:26:30.583Z,96819.03
2023-02-23T21:28:58.849Z,96816.34
2023-02-23T21:31:27.003Z,96818.16
2023-02-23T21:33:55.420Z,96818.28
2023-02-23T21:36:24.921Z,96813.03
2023-02-23T21:38:53.109Z,96805.81
2023-02-23T21:41:21.492Z,96805.09
2023-02-23T21:43:53.521Z,96806.06
2023-02-23T21:46:23.213Z,96810.56
2023-02-23T21:48:51.297Z,96815.22
2023-02-23T21:51:20.015Z,96803.63
2023-02-23T21:53:49.658Z,96803.84
2023-02-23T21:56:18.885Z,96805.66
2023-02-23T21:58:48.446Z,96804.91
2023-02-23T22:01:17.272Z,96805.06
2023-02-23T22:03:47.762Z,96802.47
2023-02-23T22:06:16.048Z,96804.31
2023-02-23T22:08:44.913Z,96797.31
2023-02-23T22:11:17.322Z,96799.19
2023-02-23T22:13:45.851Z,96801.94
2023-02-23T22:16:14.625Z,96795.81
2023-02-23T22:18:42.795Z,96797.69
2023-02-23T22:21:11.726Z,96780.81
2023-02-23T22:23:40.102Z,96787.13
2023-02-23T22:26:09.084Z,96780.91
2023-02-23T22:28:38.705Z,96787.25
2023-02-23T22:31:08.012Z,96791.03
2023-02-23T22:33:36.388Z,96785.66
2023-02-23T22:36:06.815Z,96783.09
2023-02-23T22:38:35.011Z,96774.28
2023-02-23T22:41:05.141Z,96777.97
2023-02-23T22:43:34.355Z,96777.09
2023-02-23T22:46:03.922Z,96774.56
2023-02-23T22:48:32.047Z,96778.19
2023-02-23T22:51:00.114Z,96779.28
2023-02-23T22:53:28.478Z,96767.69
2023-02-23T22:55:56.649Z,96758.75
2023-02-23T22:58:26.478Z,96763.41
2023-02-23T23:01:04.196Z,96761.66
2023-02-23T23:03:35.794Z,96759.97
2023-02-23T23:06:04.764Z,96755.56
2023-02-23T23:08:36.485Z,96758.25
2023-02-23T23:11:09.490Z,96754.72
2023-02-23T23:13:40.389Z,96753.13
2023-02-23T23:16:16.802Z,96754.94
2023-02-23T23:18:54.522Z,96756.78
2023-02-23T23:21:24.492Z,96754.22
2023-02-23T23:23:53.485Z,96748.97
2023-02-23T23:26:22.037Z,96750.78
2023-02-23T23:28:51.144Z,96749.91
2023-02-23T23:31:22.530Z,96741.84
2023-02-23T23:33:52.789Z,96740.16
2023-02-23T23:36:22.119Z,96739.41
2023-02-23T23:38:50.524Z,96731.47
2023-02-23T23:41:18.977Z,96733.31
2023-02-23T23:43:47.865Z,96730.63
2023-02-23T23:46:17.634Z,96728.88
2023-02-23T23:48:45.978Z,96724.38
2023-02-23T23:51:44.824Z,96717.41
2023-02-23T23:54:13.888Z,96716.56
2023-02-23T23:56:43.666Z,96705.91
2023-02-23T23:59:15.559Z,96719.34
